sensor_id;sensor_type;location;lat;lon;timestamp;temperature;humidity
360;DHT22;168;48.872;9.226;2023-08-07T00:00:07;13.40;95.40
360;DHT22;168;48.872;9.226;2023-08-07T00:02:35;13.40;95.40
360;DHT22;168;48.872;9.226;2023-08-07T00:05:03;13.40;95.40
360;DHT22;168;48.872;9.226;2023-08-07T00:07:30;13.40;95.40
360;DHT22;168;48.872;9.226;2023-08-07T00:09:58;13.40;95.10
360;DHT22;168;48.872;9.226;2023-08-07T00:12:28;13.30;95.40
360;DHT22;168;48.872;9.226;2023-08-07T00:14:55;13.30;95.30
360;DHT22;168;48.872;9.226;2023-08-07T00:17:23;13.30;95.50
360;DHT22;168;48.872;9.226;2023-08-07T00:19:50;13.40;95.30
360;DHT22;168;48.872;9.226;2023-08-07T00:22:17;13.40;95.50
360;DHT22;168;48.872;9.226;2023-08-07T00:24:45;13.40;95.70
360;DHT22;168;48.872;9.226;2023-08-07T00:27:12;13.50;95.80
360;DHT22;168;48.872;9.226;2023-08-07T00:29:41;13.40;95.50
360;DHT22;168;48.872;9.226;2023-08-07T00:32:09;13.40;95.70
360;DHT22;168;48.872;9.226;2023-08-07T00:34:36;13.40;95.70
360;DHT22;168;48.872;9.226;2023-08-07T00:37:04;13.40;95.80
360;DHT22;168;48.872;9.226;2023-08-07T00:39:31;13.40;95.90
360;DHT22;168;48.872;9.226;2023-08-07T00:41:59;13.40;95.90
360;DHT22;168;48.872;9.226;2023-08-07T00:44:26;13.50;96.00
360;DHT22;168;48.872;9.226;2023-08-07T00:46:55;13.50;95.90
360;DHT22;168;48.872;9.226;2023-08-07T00:49:22;13.50;96.10
360;DHT22;168;48.872;9.226;2023-08-07T00:51:49;13.40;96.10
360;DHT22;168;48.872;9.226;2023-08-07T00:54:19;13.50;96.00
360;DHT22;168;48.872;9.226;2023-08-07T00:56:47;13.50;96.10
360;DHT22;168;48.872;9.226;2023-08-07T00:59:15;13.50;96.00
360;DHT22;168;48.872;9.226;2023-08-07T01:01:42;13.50;96.20
360;DHT22;168;48.872;9.226;2023-08-07T01:04:11;13.60;96.20
360;DHT22;168;48.872;9.226;2023-08-07T01:06:38;13.60;96.20
360;DHT22;168;48.872;9.226;2023-08-07T01:09:06;13.60;96.20
360;DHT22;168;48.872;9.226;2023-08-07T01:11:39;13.60;96.10
360;DHT22;168;48.872;9.226;2023-08-07T01:14:16;13.60;96.20
360;DHT22;168;48.872;9.226;2023-08-07T01:16:48;13.60;96.20
360;DHT22;168;48.872;9.226;2023-08-07T01:19:23;13.60;96.20
360;DHT22;168;48.872;9.226;2023-08-07T01:22:05;13.60;96.10
360;DHT22;168;48.872;9.226;2023-08-07T01:24:32;13.70;96.10
360;DHT22;168;48.872;9.226;2023-08-07T01:27:07;13.60;96.10
360;DHT22;168;48.872;9.226;2023-08-07T01:29:39;13.60;96.00
360;DHT22;168;48.872;9.226;2023-08-07T01:32:11;13.60;96.20
360;DHT22;168;48.872;9.226;2023-08-07T01:34:42;13.70;96.20
360;DHT22;168;48.872;9.226;2023-08-07T01:37:12;13.60;96.10
360;DHT22;168;48.872;9.226;2023-08-07T01:39:41;13.70;96.20
360;DHT22;168;48.872;9.226;2023-08-07T01:42:09;13.70;96.10
360;DHT22;168;48.872;9.226;2023-08-07T01:44:37;13.70;96.00
360;DHT22;168;48.872;9.226;2023-08-07T01:47:05;13.70;96.10
360;DHT22;168;48.872;9.226;2023-08-07T01:49:32;13.70;96.10
360;DHT22;168;48.872;9.226;2023-08-07T01:51:59;13.60;96.00
360;DHT22;168;48.872;9.226;2023-08-07T01:54:28;13.60;95.90
360;DHT22;168;48.872;9.226;2023-08-07T01:56:55;13.60;96.00
360;DHT22;168;48.872;9.226;2023-08-07T01:59:23;13.60;95.90
360;DHT22;168;48.872;9.226;2023-08-07T02:01:52;13.60;95.90
360;DHT22;168;48.872;9.226;2023-08-07T02:04:22;13.70;96.10
360;DHT22;168;48.872;9.226;2023-08-07T02:06:50;13.70;95.90
360;DHT22;168;48.872;9.226;2023-08-07T02:09:17;13.60;95.80
360;DHT22;168;48.872;9.226;2023-08-07T02:11:46;13.60;95.90
360;DHT22;168;48.872;9.226;2023-08-07T02:14:13;13.60;95.70
360;DHT22;168;48.872;9.226;2023-08-07T02:16:41;13.60;95.90
360;DHT22;168;48.872;9.226;2023-08-07T02:19:08;13.60;95.80
360;DHT22;168;48.872;9.226;2023-08-07T02:21:35;13.60;95.80
360;DHT22;168;48.872;9.226;2023-08-07T02:24:03;13.50;95.70
360;DHT22;168;48.872;9.226;2023-08-07T02:26:30;13.50;95.70
360;DHT22;168;48.872;9.226;2023-08-07T02:28:59;13.50;96.00
360;DHT22;168;48.872;9.226;2023-08-07T02:31:26;13.40;96.20
360;DHT22;168;48.872;9.226;2023-08-07T02:33:54;13.40;96.20
360;DHT22;168;48.872;9.226;2023-08-07T02:36:21;13.40;96.20
360;DHT22;168;48.872;9.226;2023-08-07T02:38:48;13.40;96.20
360;DHT22;168;48.872;9.226;2023-08-07T02:41:16;13.40;96.30
360;DHT22;168;48.872;9.226;2023-08-07T02:43:43;13.30;96.20
360;DHT22;168;48.872;9.226;2023-08-07T02:46:11;13.30;96.30
360;DHT22;168;48.872;9.226;2023-08-07T02:48:39;13.30;96.20
360;DHT22;168;48.872;9.226;2023-08-07T02:51:06;13.30;96.20
360;DHT22;168;48.872;9.226;2023-08-07T02:53:33;13.30;96.00
360;DHT22;168;48.872;9.226;2023-08-07T02:56:01;13.40;96.00
360;DHT22;168;48.872;9.226;2023-08-07T02:58:28;13.40;96.10
360;DHT22;168;48.872;9.226;2023-08-07T03:00:55;13.40;95.90
360;DHT22;168;48.872;9.226;2023-08-07T03:03:24;13.40;95.80
360;DHT22;168;48.872;9.226;2023-08-07T03:05:52;13.40;96.00
360;DHT22;168;48.872;9.226;2023-08-07T03:08:19;13.40;95.80
360;DHT22;168;48.872;9.226;2023-08-07T03:10:51;13.30;96.00
360;DHT22;168;48.872;9.226;2023-08-07T03:13:18;13.30;96.00
360;DHT22;168;48.872;9.226;2023-08-07T03:15:45;13.20;96.00
360;DHT22;168;48.872;9.226;2023-08-07T03:18:15;13.20;96.00
360;DHT22;168;48.872;9.226;2023-08-07T03:20:44;13.20;96.00
360;DHT22;168;48.872;9.226;2023-08-07T03:23:11;13.10;96.20
360;DHT22;168;48.872;9.226;2023-08-07T03:25:39;13.10;96.20
360;DHT22;168;48.872;9.226;2023-08-07T03:28:06;13.20;96.30
360;DHT22;168;48.872;9.226;2023-08-07T03:30:33;13.20;95.90
360;DHT22;168;48.872;9.226;2023-08-07T03:33:01;13.20;96.10
360;DHT22;168;48.872;9.226;2023-08-07T03:35:28;13.20;96.20
360;DHT22;168;48.872;9.226;2023-08-07T03:37:57;13.20;96.10
360;DHT22;168;48.872;9.226;2023-08-07T03:40:24;13.20;96.10
360;DHT22;168;48.872;9.226;2023-08-07T03:42:51;13.30;96.10
360;DHT22;168;48.872;9.226;2023-08-07T03:45:19;13.30;96.00
360;DHT22;168;48.872;9.226;2023-08-07T03:47:46;13.30;96.00
360;DHT22;168;48.872;9.226;2023-08-07T03:50:13;13.30;96.00
360;DHT22;168;48.872;9.226;2023-08-07T03:52:40;13.30;96.10
360;DHT22;168;48.872;9.226;2023-08-07T03:55:09;13.30;96.00
360;DHT22;168;48.872;9.226;2023-08-07T03:57:37;13.40;96.00
360;DHT22;168;48.872;9.226;2023-08-07T04:00:05;13.30;96.00
360;DHT22;168;48.872;9.226;2023-08-07T04:02:33;13.30;96.00
360;DHT22;168;48.872;9.226;2023-08-07T04:05:00;13.30;96.10
360;DHT22;168;48.872;9.226;2023-08-07T04:07:28;13.30;96.00
360;DHT22;168;48.872;9.226;2023-08-07T04:09:55;13.40;96.20
360;DHT22;168;48.872;9.226;2023-08-07T04:12:24;13.30;95.90
360;DHT22;168;48.872;9.226;2023-08-07T04:14:51;13.40;96.00
360;DHT22;168;48.872;9.226;2023-08-07T04:17:19;13.30;95.90
360;DHT22;168;48.872;9.226;2023-08-07T04:19:46;13.40;96.10
360;DHT22;168;48.872;9.226;2023-08-07T04:22:13;13.40;96.10
360;DHT22;168;48.872;9.226;2023-08-07T04:24:41;13.50;95.90
360;DHT22;168;48.872;9.226;2023-08-07T04:27:08;13.50;95.60
360;DHT22;168;48.872;9.226;2023-08-07T04:29:37;13.40;95.70
360;DHT22;168;48.872;9.226;2023-08-07T04:32:05;13.40;95.80
360;DHT22;168;48.872;9.226;2023-08-07T04:34:33;13.40;95.80
360;DHT22;168;48.872;9.226;2023-08-07T04:37:01;13.50;95.60
360;DHT22;168;48.872;9.226;2023-08-07T04:39:28;13.50;95.50
360;DHT22;168;48.872;9.226;2023-08-07T04:41:56;13.50;95.60
360;DHT22;168;48.872;9.226;2023-08-07T04:44:24;13.50;95.70
360;DHT22;168;48.872;9.226;2023-08-07T04:46:59;13.50;95.70
360;DHT22;168;48.872;9.226;2023-08-07T04:49:29;13.40;96.00
360;DHT22;168;48.872;9.226;2023-08-07T04:51:59;13.40;95.90
360;DHT22;168;48.872;9.226;2023-08-07T04:54:32;13.50;95.80
360;DHT22;168;48.872;9.226;2023-08-07T04:56:59;13.40;95.90
360;DHT22;168;48.872;9.226;2023-08-07T04:59:27;13.40;96.10
360;DHT22;168;48.872;9.226;2023-08-07T05:01:57;13.40;96.00
360;DHT22;168;48.872;9.226;2023-08-07T05:04:25;13.50;95.90
360;DHT22;168;48.872;9.226;2023-08-07T05:06:52;13.50;95.80
360;DHT22;168;48.872;9.226;2023-08-07T05:09:24;13.60;95.80
360;DHT22;168;48.872;9.226;2023-08-07T05:11:52;13.60;95.80
360;DHT22;168;48.872;9.226;2023-08-07T05:14:19;13.70;95.70
360;DHT22;168;48.872;9.226;2023-08-07T05:16:48;13.70;95.80
360;DHT22;168;48.872;9.226;2023-08-07T05:19:19;13.70;95.80
360;DHT22;168;48.872;9.226;2023-08-07T05:21:47;13.70;95.80
360;DHT22;168;48.872;9.226;2023-08-07T05:24:16;13.70;95.70
360;DHT22;168;48.872;9.226;2023-08-07T05:26:46;13.70;95.90
360;DHT22;168;48.872;9.226;2023-08-07T05:29:23;13.70;95.70
360;DHT22;168;48.872;9.226;2023-08-07T05:31:57;13.60;95.90
360;DHT22;168;48.872;9.226;2023-08-07T05:34:30;13.70;95.90
360;DHT22;168;48.872;9.226;2023-08-07T05:37:00;13.80;95.80
360;DHT22;168;48.872;9.226;2023-08-07T05:39:27;13.70;96.00
360;DHT22;168;48.872;9.226;2023-08-07T05:41:55;13.70;95.80
360;DHT22;168;48.872;9.226;2023-08-07T05:44:24;13.70;95.70
360;DHT22;168;48.872;9.226;2023-08-07T05:46:51;13.60;95.80
360;DHT22;168;48.872;9.226;2023-08-07T05:49:19;13.70;95.80
360;DHT22;168;48.872;9.226;2023-08-07T05:51:48;13.70;95.70
360;DHT22;168;48.872;9.226;2023-08-07T05:54:15;13.80;95.50
360;DHT22;168;48.872;9.226;2023-08-07T05:56:43;13.80;95.40
360;DHT22;168;48.872;9.226;2023-08-07T05:59:11;13.80;95.40
360;DHT22;168;48.872;9.226;2023-08-07T06:01:38;13.80;95.30
360;DHT22;168;48.872;9.226;2023-08-07T06:04:07;13.80;95.30
360;DHT22;168;48.872;9.226;2023-08-07T06:06:35;13.80;95.20
360;DHT22;168;48.872;9.226;2023-08-07T06:09:04;13.90;95.20
360;DHT22;168;48.872;9.226;2023-08-07T06:11:37;14.00;95.20
360;DHT22;168;48.872;9.226;2023-08-07T06:14:07;14.00;94.80
360;DHT22;168;48.872;9.226;2023-08-07T06:16:40;14.10;94.70
360;DHT22;168;48.872;9.226;2023-08-07T06:19:08;14.20;94.50
360;DHT22;168;48.872;9.226;2023-08-07T06:21:37;14.30;94.60
360;DHT22;168;48.872;9.226;2023-08-07T06:24:09;14.40;94.40
360;DHT22;168;48.872;9.226;2023-08-07T06:26:42;14.40;94.30
360;DHT22;168;48.872;9.226;2023-08-07T06:29:19;14.30;94.30
360;DHT22;168;48.872;9.226;2023-08-07T06:31:46;14.20;94.60
360;DHT22;168;48.872;9.226;2023-08-07T06:34:14;14.20;94.70
360;DHT22;168;48.872;9.226;2023-08-07T06:36:41;14.20;94.70
360;DHT22;168;48.872;9.226;2023-08-07T06:39:10;14.20;94.60
360;DHT22;168;48.872;9.226;2023-08-07T06:41:40;14.20;94.50
360;DHT22;168;48.872;9.226;2023-08-07T06:44:08;14.20;94.00
360;DHT22;168;48.872;9.226;2023-08-07T06:46:35;14.20;94.30
360;DHT22;168;48.872;9.226;2023-08-07T06:49:06;14.30;93.80
360;DHT22;168;48.872;9.226;2023-08-07T06:51:51;14.40;93.70
360;DHT22;168;48.872;9.226;2023-08-07T06:54:24;14.50;93.40
360;DHT22;168;48.872;9.226;2023-08-07T06:57:00;14.60;93.20
360;DHT22;168;48.872;9.226;2023-08-07T06:59:56;14.70;93.40
360;DHT22;168;48.872;9.226;2023-08-07T07:02:31;14.80;93.10
360;DHT22;168;48.872;9.226;2023-08-07T07:04:59;14.90;92.40
360;DHT22;168;48.872;9.226;2023-08-07T07:11:01;14.90;91.30
360;DHT22;168;48.872;9.226;2023-08-07T07:13:46;15.00;90.10
360;DHT22;168;48.872;9.226;2023-08-07T07:16:17;15.10;91.00
360;DHT22;168;48.872;9.226;2023-08-07T07:18:55;15.30;90.70
360;DHT22;168;48.872;9.226;2023-08-07T07:21:30;15.40;88.50
360;DHT22;168;48.872;9.226;2023-08-07T07:24:05;15.30;88.70
360;DHT22;168;48.872;9.226;2023-08-07T07:26:42;15.50;88.20
360;DHT22;168;48.872;9.226;2023-08-07T07:29:12;15.60;87.20
360;DHT22;168;48.872;9.226;2023-08-07T07:31:58;15.40;88.40
360;DHT22;168;48.872;9.226;2023-08-07T07:34:49;15.30;88.10
360;DHT22;168;48.872;9.226;2023-08-07T07:37:38;15.10;88.70
360;DHT22;168;48.872;9.226;2023-08-07T07:40:47;14.90;90.30
360;DHT22;168;48.872;9.226;2023-08-07T07:44:04;14.90;90.90
360;DHT22;168;48.872;9.226;2023-08-07T07:47:01;15.10;91.70
360;DHT22;168;48.872;9.226;2023-08-07T07:50:03;15.30;91.10
360;DHT22;168;48.872;9.226;2023-08-07T07:52:54;15.30;90.70
360;DHT22;168;48.872;9.226;2023-08-07T07:55:39;15.30;91.10
360;DHT22;168;48.872;9.226;2023-08-07T07:58:23;15.60;91.00
360;DHT22;168;48.872;9.226;2023-08-07T08:01:08;15.80;89.90
360;DHT22;168;48.872;9.226;2023-08-07T08:03:41;15.80;88.60
360;DHT22;168;48.872;9.226;2023-08-07T08:06:28;15.80;88.40
360;DHT22;168;48.872;9.226;2023-08-07T08:09:08;15.50;87.90
360;DHT22;168;48.872;9.226;2023-08-07T08:11:38;15.40;87.90
360;DHT22;168;48.872;9.226;2023-08-07T08:14:07;15.40;88.30
360;DHT22;168;48.872;9.226;2023-08-07T08:17:11;15.50;87.80
360;DHT22;168;48.872;9.226;2023-08-07T08:19:39;15.40;87.90
360;DHT22;168;48.872;9.226;2023-08-07T08:22:06;15.40;88.30
360;DHT22;168;48.872;9.226;2023-08-07T08:24:33;15.30;88.70
360;DHT22;168;48.872;9.226;2023-08-07T08:27:01;15.40;88.30
360;DHT22;168;48.872;9.226;2023-08-07T08:29:28;15.50;88.70
360;DHT22;168;48.872;9.226;2023-08-07T08:31:57;15.70;89.00
360;DHT22;168;48.872;9.226;2023-08-07T08:34:27;15.90;88.10
360;DHT22;168;48.872;9.226;2023-08-07T08:37:14;15.90;87.40
360;DHT22;168;48.872;9.226;2023-08-07T08:43:27;16.20;86.50
360;DHT22;168;48.872;9.226;2023-08-07T08:48:38;16.40;84.10
360;DHT22;168;48.872;9.226;2023-08-07T08:51:06;16.60;84.80
360;DHT22;168;48.872;9.226;2023-08-07T08:53:35;16.70;83.50
360;DHT22;168;48.872;9.226;2023-08-07T08:56:03;16.60;82.00
360;DHT22;168;48.872;9.226;2023-08-07T08:58:36;16.60;81.70
360;DHT22;168;48.872;9.226;2023-08-07T09:01:07;16.60;82.70
360;DHT22;168;48.872;9.226;2023-08-07T09:03:36;16.50;82.00
360;DHT22;168;48.872;9.226;2023-08-07T09:06:21;16.70;82.60
360;DHT22;168;48.872;9.226;2023-08-07T09:09:24;16.90;80.10
360;DHT22;168;48.872;9.226;2023-08-07T09:12:29;16.90;79.60
360;DHT22;168;48.872;9.226;2023-08-07T09:15:18;16.90;79.50
360;DHT22;168;48.872;9.226;2023-08-07T09:17:50;16.90;80.10
360;DHT22;168;48.872;9.226;2023-08-07T09:20:44;16.80;79.90
360;DHT22;168;48.872;9.226;2023-08-07T09:34:56;17.30;79.40
360;DHT22;168;48.872;9.226;2023-08-07T09:44:49;17.20;78.20
360;DHT22;168;48.872;9.226;2023-08-07T09:47:28;17.20;79.20
360;DHT22;168;48.872;9.226;2023-08-07T09:50:06;17.20;79.90
360;DHT22;168;48.872;9.226;2023-08-07T09:52:53;17.40;79.30
360;DHT22;168;48.872;9.226;2023-08-07T09:55:45;17.40;76.50
360;DHT22;168;48.872;9.226;2023-08-07T09:58:26;17.30;76.80
360;DHT22;168;48.872;9.226;2023-08-07T10:00:58;17.40;76.30
360;DHT22;168;48.872;9.226;2023-08-07T10:03:26;17.50;75.70
360;DHT22;168;48.872;9.226;2023-08-07T10:05:54;17.50;76.50
360;DHT22;168;48.872;9.226;2023-08-07T10:08:22;17.50;75.80
360;DHT22;168;48.872;9.226;2023-08-07T10:10:51;17.70;75.80
360;DHT22;168;48.872;9.226;2023-08-07T10:13:22;17.70;76.10
360;DHT22;168;48.872;9.226;2023-08-07T10:16:15;17.70;75.90
360;DHT22;168;48.872;9.226;2023-08-07T10:19:13;17.90;76.50
360;DHT22;168;48.872;9.226;2023-08-07T12:31:18;18.10;76.20
360;DHT22;168;48.872;9.226;2023-08-07T12:33:46;18.20;76.90
360;DHT22;168;48.872;9.226;2023-08-07T12:36:13;18.40;76.50
360;DHT22;168;48.872;9.226;2023-08-07T12:38:41;18.40;76.50
360;DHT22;168;48.872;9.226;2023-08-07T12:41:09;18.20;76.30
360;DHT22;168;48.872;9.226;2023-08-07T12:43:36;18.20;77.70
360;DHT22;168;48.872;9.226;2023-08-07T12:46:04;18.30;77.40
360;DHT22;168;48.872;9.226;2023-08-07T12:48:33;18.50;77.70
360;DHT22;168;48.872;9.226;2023-08-07T12:51:00;18.60;76.80
360;DHT22;168;48.872;9.226;2023-08-07T12:53:27;18.70;77.00
360;DHT22;168;48.872;9.226;2023-08-07T12:55:55;18.90;75.70
360;DHT22;168;48.872;9.226;2023-08-07T12:58:23;19.00;75.80
360;DHT22;168;48.872;9.226;2023-08-07T13:00:52;19.00;75.90
360;DHT22;168;48.872;9.226;2023-08-07T13:03:19;19.00;75.90
360;DHT22;168;48.872;9.226;2023-08-07T13:05:48;18.80;75.40
360;DHT22;168;48.872;9.226;2023-08-07T13:08:15;18.80;76.10
360;DHT22;168;48.872;9.226;2023-08-07T13:10:43;18.80;75.90
360;DHT22;168;48.872;9.226;2023-08-07T13:13:10;18.80;76.70
360;DHT22;168;48.872;9.226;2023-08-07T13:15:37;18.70;75.70
360;DHT22;168;48.872;9.226;2023-08-07T13:18:05;18.50;76.00
360;DHT22;168;48.872;9.226;2023-08-07T13:20:32;18.50;77.10
360;DHT22;168;48.872;9.226;2023-08-07T13:23:02;18.40;77.30
360;DHT22;168;48.872;9.226;2023-08-07T13:25:32;18.40;76.60
360;DHT22;168;48.872;9.226;2023-08-07T13:27:59;18.50;76.60
360;DHT22;168;48.872;9.226;2023-08-07T13:30:27;18.60;76.60
360;DHT22;168;48.872;9.226;2023-08-07T13:32:54;18.90;74.60
360;DHT22;168;48.872;9.226;2023-08-07T13:35:22;19.00;74.60
360;DHT22;168;48.872;9.226;2023-08-07T13:38:05;19.30;73.80
360;DHT22;168;48.872;9.226;2023-08-07T13:40:34;19.50;73.20
360;DHT22;168;48.872;9.226;2023-08-07T13:43:17;19.50;73.40
360;DHT22;168;48.872;9.226;2023-08-07T13:45:44;19.60;72.10
360;DHT22;168;48.872;9.226;2023-08-07T13:48:12;19.70;73.10
360;DHT22;168;48.872;9.226;2023-08-07T13:50:40;20.00;73.50
360;DHT22;168;48.872;9.226;2023-08-07T13:53:08;20.30;72.70
360;DHT22;168;48.872;9.226;2023-08-07T13:55:36;20.70;70.80
360;DHT22;168;48.872;9.226;2023-08-07T13:58:03;20.80;70.70
360;DHT22;168;48.872;9.226;2023-08-07T14:00:31;20.90;70.80
360;DHT22;168;48.872;9.226;2023-08-07T14:03:01;20.80;69.30
360;DHT22;168;48.872;9.226;2023-08-07T14:05:29;20.50;70.70
360;DHT22;168;48.872;9.226;2023-08-07T14:07:57;20.30;71.60
360;DHT22;168;48.872;9.226;2023-08-07T14:10:31;20.20;72.40
360;DHT22;168;48.872;9.226;2023-08-07T14:12:59;20.10;72.10
360;DHT22;168;48.872;9.226;2023-08-07T14:15:26;20.10;72.30
360;DHT22;168;48.872;9.226;2023-08-07T14:17:54;20.20;72.20
360;DHT22;168;48.872;9.226;2023-08-07T14:20:22;20.40;72.60
360;DHT22;168;48.872;9.226;2023-08-07T14:22:49;20.60;71.70
360;DHT22;168;48.872;9.226;2023-08-07T14:25:17;20.90;70.60
360;DHT22;168;48.872;9.226;2023-08-07T14:27:46;21.10;67.40
360;DHT22;168;48.872;9.226;2023-08-07T14:30:13;20.90;65.70
360;DHT22;168;48.872;9.226;2023-08-07T14:32:41;20.80;66.60
360;DHT22;168;48.872;9.226;2023-08-07T14:35:11;20.60;66.90
360;DHT22;168;48.872;9.226;2023-08-07T14:48:05;20.00;68.70
360;DHT22;168;48.872;9.226;2023-08-07T14:50:42;20.00;69.40
360;DHT22;168;48.872;9.226;2023-08-07T14:53:09;20.40;68.60
360;DHT22;168;48.872;9.226;2023-08-07T14:55:37;20.70;67.50
360;DHT22;168;48.872;9.226;2023-08-07T14:58:04;20.80;67.50
360;DHT22;168;48.872;9.226;2023-08-07T15:04:02;20.60;66.60
360;DHT22;168;48.872;9.226;2023-08-07T15:06:57;20.10;67.90
360;DHT22;168;48.872;9.226;2023-08-07T15:09:35;19.90;68.80
360;DHT22;168;48.872;9.226;2023-08-07T15:12:03;19.80;69.70
360;DHT22;168;48.872;9.226;2023-08-07T15:14:32;19.60;73.00
360;DHT22;168;48.872;9.226;2023-08-07T15:16:59;19.50;74.90
360;DHT22;168;48.872;9.226;2023-08-07T15:19:28;19.20;75.20
360;DHT22;168;48.872;9.226;2023-08-07T15:21:58;18.80;74.00
360;DHT22;168;48.872;9.226;2023-08-07T15:24:38;18.60;74.50
360;DHT22;168;48.872;9.226;2023-08-07T15:27:28;18.50;75.50
360;DHT22;168;48.872;9.226;2023-08-07T15:30:13;18.80;75.40
360;DHT22;168;48.872;9.226;2023-08-07T15:32:40;19.30;74.60
360;DHT22;168;48.872;9.226;2023-08-07T15:35:09;19.90;71.00
360;DHT22;168;48.872;9.226;2023-08-07T15:37:36;20.40;69.80
360;DHT22;168;48.872;9.226;2023-08-07T15:42:57;20.80;68.30
360;DHT22;168;48.872;9.226;2023-08-07T15:45:25;20.90;67.90
360;DHT22;168;48.872;9.226;2023-08-07T15:47:52;20.90;68.40
360;DHT22;168;48.872;9.226;2023-08-07T15:50:21;21.00;68.00
360;DHT22;168;48.872;9.226;2023-08-07T15:52:49;20.90;68.50
360;DHT22;168;48.872;9.226;2023-08-07T15:55:16;20.90;69.00
360;DHT22;168;48.872;9.226;2023-08-07T15:57:46;20.90;69.30
360;DHT22;168;48.872;9.226;2023-08-07T16:00:14;20.80;67.90
360;DHT22;168;48.872;9.226;2023-08-07T16:03:09;20.30;69.70
360;DHT22;168;48.872;9.226;2023-08-07T16:05:38;20.30;70.60
360;DHT22;168;48.872;9.226;2023-08-07T16:08:23;20.20;69.50
360;DHT22;168;48.872;9.226;2023-08-07T16:10:54;20.10;69.40
360;DHT22;168;48.872;9.226;2023-08-07T16:13:21;20.10;69.20
360;DHT22;168;48.872;9.226;2023-08-07T16:15:49;20.40;69.40
360;DHT22;168;48.872;9.226;2023-08-07T16:18:16;20.80;68.80
360;DHT22;168;48.872;9.226;2023-08-07T16:20:45;21.10;67.60
360;DHT22;168;48.872;9.226;2023-08-07T16:23:12;21.30;66.80
360;DHT22;168;48.872;9.226;2023-08-07T16:25:40;21.50;67.10
360;DHT22;168;48.872;9.226;2023-08-07T16:28:07;21.70;66.30
360;DHT22;168;48.872;9.226;2023-08-07T16:30:34;21.70;66.40
360;DHT22;168;48.872;9.226;2023-08-07T16:33:02;21.80;65.00
360;DHT22;168;48.872;9.226;2023-08-07T16:35:30;21.70;64.80
360;DHT22;168;48.872;9.226;2023-08-07T16:37:58;21.60;65.50
360;DHT22;168;48.872;9.226;2023-08-07T16:40:26;21.60;65.40
360;DHT22;168;48.872;9.226;2023-08-07T16:42:53;21.70;66.00
360;DHT22;168;48.872;9.226;2023-08-07T16:45:21;21.90;65.40
360;DHT22;168;48.872;9.226;2023-08-07T16:47:49;22.10;64.50
360;DHT22;168;48.872;9.226;2023-08-07T16:50:17;22.10;63.90
360;DHT22;168;48.872;9.226;2023-08-07T16:52:44;22.20;64.60
360;DHT22;168;48.872;9.226;2023-08-07T16:55:13;22.40;64.60
360;DHT22;168;48.872;9.226;2023-08-07T16:57:40;22.60;64.30
360;DHT22;168;48.872;9.226;2023-08-07T17:00:08;22.50;64.40
360;DHT22;168;48.872;9.226;2023-08-07T17:02:36;22.20;64.90
360;DHT22;168;48.872;9.226;2023-08-07T17:05:04;22.20;65.30
360;DHT22;168;48.872;9.226;2023-08-07T17:07:31;22.40;64.90
360;DHT22;168;48.872;9.226;2023-08-07T17:09:59;22.30;64.60
360;DHT22;168;48.872;9.226;2023-08-07T17:12:28;22.20;65.30
360;DHT22;168;48.872;9.226;2023-08-07T17:14:55;22.20;65.00
360;DHT22;168;48.872;9.226;2023-08-07T17:17:22;22.20;64.60
360;DHT22;168;48.872;9.226;2023-08-07T17:19:50;22.20;63.40
360;DHT22;168;48.872;9.226;2023-08-07T17:22:17;22.10;63.80
360;DHT22;168;48.872;9.226;2023-08-07T17:24:45;21.90;64.10
360;DHT22;168;48.872;9.226;2023-08-07T17:27:12;21.90;64.40
360;DHT22;168;48.872;9.226;2023-08-07T17:29:40;22.00;63.70
360;DHT22;168;48.872;9.226;2023-08-07T17:32:08;22.00;64.10
360;DHT22;168;48.872;9.226;2023-08-07T17:34:35;22.10;62.40
360;DHT22;168;48.872;9.226;2023-08-07T17:37:03;22.10;62.30
360;DHT22;168;48.872;9.226;2023-08-07T17:39:31;22.10;62.60
360;DHT22;168;48.872;9.226;2023-08-07T17:41:58;22.20;62.80
360;DHT22;168;48.872;9.226;2023-08-07T17:44:26;22.00;63.00
360;DHT22;168;48.872;9.226;2023-08-07T17:46:54;21.70;63.40
360;DHT22;168;48.872;9.226;2023-08-07T17:49:22;21.50;63.80
360;DHT22;168;48.872;9.226;2023-08-07T17:51:49;21.20;64.40
360;DHT22;168;48.872;9.226;2023-08-07T17:54:17;20.90;65.50
360;DHT22;168;48.872;9.226;2023-08-07T17:56:44;20.70;66.30
360;DHT22;168;48.872;9.226;2023-08-07T17:59:12;20.50;67.30
360;DHT22;168;48.872;9.226;2023-08-07T18:01:40;20.20;68.30
360;DHT22;168;48.872;9.226;2023-08-07T18:04:09;20.00;69.20
360;DHT22;168;48.872;9.226;2023-08-07T18:06:36;19.80;70.40
360;DHT22;168;48.872;9.226;2023-08-07T18:09:04;19.70;70.80
360;DHT22;168;48.872;9.226;2023-08-07T18:11:31;19.70;71.20
360;DHT22;168;48.872;9.226;2023-08-07T18:13:58;19.70;71.80
360;DHT22;168;48.872;9.226;2023-08-07T18:16:26;19.60;72.30
360;DHT22;168;48.872;9.226;2023-08-07T18:18:53;19.50;72.40
360;DHT22;168;48.872;9.226;2023-08-07T18:21:22;19.40;72.90
360;DHT22;168;48.872;9.226;2023-08-07T18:23:50;19.40;73.20
360;DHT22;168;48.872;9.226;2023-08-07T18:26:17;19.20;74.00
360;DHT22;168;48.872;9.226;2023-08-07T18:28:45;19.10;74.40
360;DHT22;168;48.872;9.226;2023-08-07T18:31:12;19.10;73.90
360;DHT22;168;48.872;9.226;2023-08-07T18:33:40;19.00;74.80
360;DHT22;168;48.872;9.226;2023-08-07T18:36:07;18.90;75.20
360;DHT22;168;48.872;9.226;2023-08-07T18:38:36;18.90;75.10
360;DHT22;168;48.872;9.226;2023-08-07T18:41:03;18.70;75.80
360;DHT22;168;48.872;9.226;2023-08-07T18:43:32;18.50;76.70
360;DHT22;168;48.872;9.226;2023-08-07T18:46:00;18.50;76.70
360;DHT22;168;48.872;9.226;2023-08-07T18:48:28;18.50;76.60
360;DHT22;168;48.872;9.226;2023-08-07T18:50:55;18.50;76.80
360;DHT22;168;48.872;9.226;2023-08-07T18:53:25;18.40;77.40
360;DHT22;168;48.872;9.226;2023-08-07T18:55:54;18.40;77.50
360;DHT22;168;48.872;9.226;2023-08-07T18:58:23;18.30;77.60
360;DHT22;168;48.872;9.226;2023-08-07T19:00:51;18.20;77.80
360;DHT22;168;48.872;9.226;2023-08-07T19:03:18;18.10;78.40
360;DHT22;168;48.872;9.226;2023-08-07T19:05:45;18.10;79.00
360;DHT22;168;48.872;9.226;2023-08-07T19:08:13;18.10;79.00
360;DHT22;168;48.872;9.226;2023-08-07T19:10:40;18.00;79.60
360;DHT22;168;48.872;9.226;2023-08-07T19:18:15;17.80;80.60
360;DHT22;168;48.872;9.226;2023-08-07T19:20:46;17.70;81.30
360;DHT22;168;48.872;9.226;2023-08-07T19:23:16;17.70;81.60
360;DHT22;168;48.872;9.226;2023-08-07T19:25:47;17.70;81.60
360;DHT22;168;48.872;9.226;2023-08-07T19:28:18;17.60;81.80
360;DHT22;168;48.872;9.226;2023-08-07T19:36:33;17.50;82.80
360;DHT22;168;48.872;9.226;2023-08-07T19:39:20;17.40;82.80
360;DHT22;168;48.872;9.226;2023-08-07T19:42:00;17.40;83.20
360;DHT22;168;48.872;9.226;2023-08-07T19:54:47;17.10;84.30
360;DHT22;168;48.872;9.226;2023-08-07T19:57:18;17.10;84.50
360;DHT22;168;48.872;9.226;2023-08-07T19:59:54;17.00;84.70
360;DHT22;168;48.872;9.226;2023-08-07T20:02:34;17.00;84.90
360;DHT22;168;48.872;9.226;2023-08-07T20:05:07;17.00;84.70
360;DHT22;168;48.872;9.226;2023-08-07T20:07:38;17.00;85.00
360;DHT22;168;48.872;9.226;2023-08-07T20:10:11;16.90;85.30
360;DHT22;168;48.872;9.226;2023-08-07T20:12:44;16.80;85.20